< < Back
Terminal Aerodrome Forecast


Current Version              Previous Versions:   1  2  3  4  5  6  7  8  9  

Terminal Aerodrome Forecast

530
FTUS42 KFFC 210531
TAFMCN
TAF
KMCN 210531Z 2106/2206 VRB03KT P6SM SCT250
     FM211500 03006KT P6SM FEW250
     FM212000 07005KT P6SM SCT250=

Latest METAR

919
SAUS80 KWBC 211600
MTRMCN
METAR KMCN 211553Z 02009KT 10SM CLR 15/M01 A3041 RMK AO2 SLP295
T01501006


USA.gov is the U.S. government's official web portal to all federal, state and local government web resources and services.